Terminal Aerodrome Forecast
Issued by NWS Cleveland, OH

Home | Current Version | Previous Version | Graphics & Text | Print | Product List | Glossary Off
Versions: 1 2 3 4 5 6 7 8 9 10 11 12 13

000
FTUS41 KCLE 260200 AAA
TAFERI
TAF AMD
KERI 260251Z 2603/2624 23010KT P6SM OVC030
     FM260700 20010KT P6SM BKN250
     FM261500 20012G20KT P6SM SCT250=

USA.gov is the U.S. government's official web portal to all federal, state and local government web resources and services.